createdAt,value
2018-05-11T00:02:10.665Z,30.13
2018-05-11T00:04:39.646Z,41.40
2018-05-11T00:07:08.597Z,57.17
2018-05-11T00:09:37.610Z,77.47
2018-05-11T00:12:06.574Z,55.13
2018-05-11T00:14:35.536Z,47.80
2018-05-11T00:17:04.503Z,56.40
2018-05-11T00:19:33.461Z,38.30
2018-05-11T00:22:02.482Z,46.57
2018-05-11T00:24:31.459Z,75.73
2018-05-11T00:27:00.424Z,62.70
2018-05-11T00:29:29.393Z,56.50
2018-05-11T00:31:58.363Z,44.67
2018-05-11T00:34:27.347Z,52.70
2018-05-11T00:36:56.296Z,44.27
2018-05-11T00:39:25.283Z,50.27
2018-05-11T00:41:54.244Z,43.27
2018-05-11T00:44:23.203Z,31.83
2018-05-11T00:46:52.196Z,42.93
2018-05-11T00:49:21.173Z,44.53
2018-05-11T00:51:50.168Z,56.43
2018-05-11T00:54:19.119Z,61.10
2018-05-11T00:56:48.075Z,42.60
2018-05-11T00:59:17.101Z,70.33
2018-05-11T01:01:46.075Z,81.83
2018-05-11T01:04:15.032Z,51.23
2018-05-11T01:06:44.000Z,51.30
2018-05-11T01:09:12.975Z,55.27
2018-05-11T01:11:41.990Z,49.50
2018-05-11T01:14:10.963Z,41.13
2018-05-11T01:16:39.926Z,35.00
2018-05-11T01:19:08.892Z,40.60
2018-05-11T01:21:37.855Z,35.77
2018-05-11T01:24:06.855Z,45.43
2018-05-11T01:26:35.821Z,51.47
2018-05-11T01:29:04.808Z,70.30
2018-05-11T01:31:33.786Z,62.77
2018-05-11T01:34:02.768Z,46.37
2018-05-11T01:36:31.794Z,105.43
2018-05-11T01:39:00.774Z,87.67
2018-05-11T01:41:29.754Z,74.73
2018-05-11T01:43:58.730Z,103.17
2018-05-11T01:46:27.695Z,98.73
2018-05-11T01:48:56.787Z,86.23
2018-05-11T01:51:25.725Z,100.00
2018-05-11T01:53:54.702Z,111.27
2018-05-11T01:56:23.674Z,81.57
2018-05-11T01:58:52.631Z,97.03
2018-05-11T02:01:21.646Z,81.47
2018-05-11T02:03:50.601Z,91.07
2018-05-11T02:06:19.581Z,71.90
2018-05-11T02:08:48.552Z,67.70
2018-05-11T02:11:17.505Z,59.63
2018-05-11T02:13:46.506Z,91.10
2018-05-11T02:16:15.482Z,59.47
2018-05-11T02:18:44.537Z,105.37
2018-05-11T02:21:13.460Z,117.93
2018-05-11T02:23:42.417Z,78.60
2018-05-11T02:26:11.428Z,68.83
2018-05-11T02:28:40.390Z,76.87
2018-05-11T02:31:09.341Z,66.80
2018-05-11T02:33:38.320Z,64.70
2018-05-11T02:36:07.292Z,113.37
2018-05-11T02:38:36.388Z,86.57
2018-05-11T02:41:05.361Z,69.37
2018-05-11T02:43:34.312Z,67.40
2018-05-11T02:46:03.267Z,62.30
2018-05-11T02:48:32.224Z,77.17
2018-05-11T02:51:01.245Z,72.67
2018-05-11T02:53:30.217Z,58.73
2018-05-11T02:55:59.187Z,55.97
2018-05-11T02:58:28.165Z,58.30
2018-05-11T03:00:57.141Z,50.50
2018-05-11T03:03:26.148Z,55.67
2018-05-11T03:05:55.109Z,65.50
2018-05-11T03:08:24.084Z,68.57
2018-05-11T03:10:53.062Z,85.03
2018-05-11T03:13:22.051Z,79.13
2018-05-11T03:15:51.052Z,57.80
2018-05-11T03:18:20.100Z,74.00
2018-05-11T03:20:48.988Z,52.40
2018-05-11T03:23:17.946Z,87.83
2018-05-11T03:25:46.897Z,70.70
2018-05-11T03:28:15.931Z,106.33
2018-05-11T03:30:44.886Z,103.27
2018-05-11T03:33:13.849Z,88.73
2018-05-11T03:35:42.807Z,86.07
2018-05-11T03:38:11.768Z,76.53
2018-05-11T03:40:40.791Z,72.43
2018-05-11T03:43:09.768Z,62.77
2018-05-11T03:45:38.735Z,68.77
2018-05-11T03:48:07.706Z,53.20
2018-05-11T03:50:36.679Z,66.20
2018-05-11T03:53:05.682Z,77.07
2018-05-11T03:55:34.635Z,55.30
2018-05-11T03:58:03.615Z,60.37
2018-05-11T04:00:32.580Z,52.43
2018-05-11T04:03:07.375Z,60.77
2018-05-11T04:05:42.250Z,67.27
2018-05-11T04:08:17.171Z,72.93
2018-05-11T04:10:46.131Z,113.87
2018-05-11T04:13:15.160Z,99.60
2018-05-11T04:15:44.133Z,63.40
2018-05-11T04:18:13.119Z,62.20
2018-05-11T04:20:42.193Z,69.00
2018-05-11T04:23:11.082Z,68.40
2018-05-11T04:25:40.055Z,65.70
2018-05-11T04:28:09.070Z,55.17
2018-05-11T04:30:38.169Z,44.57
2018-05-11T04:33:07.113Z,43.53
2018-05-11T04:35:36.059Z,39.53
2018-05-11T04:38:05.034Z,42.73
2018-05-11T04:40:34.035Z,50.30
2018-05-11T04:43:02.997Z,41.63
2018-05-11T04:45:31.954Z,41.33
2018-05-11T04:48:00.916Z,51.10
2018-05-11T04:50:29.873Z,35.27
2018-05-11T04:52:58.886Z,44.83
2018-05-11T04:55:27.854Z,36.47
2018-05-11T04:57:56.821Z,43.03
2018-05-11T05:00:25.787Z,45.17
2018-05-11T05:02:54.744Z,43.30
2018-05-11T05:05:23.749Z,38.67
2018-05-11T05:07:52.727Z,39.03
2018-05-11T05:10:21.686Z,32.67
2018-05-11T05:12:50.662Z,33.93
2018-05-11T05:15:19.640Z,31.53
2018-05-11T05:17:48.643Z,44.27
2018-05-11T05:20:17.614Z,45.93
2018-05-11T05:22:46.587Z,38.47
2018-05-11T05:25:15.572Z,40.07
2018-05-11T05:27:44.540Z,29.50
2018-05-11T05:30:13.563Z,45.97
2018-05-11T05:32:42.535Z,37.10
2018-05-11T05:35:11.492Z,39.03
2018-05-11T05:37:40.468Z,33.27
2018-05-11T05:40:09.419Z,44.63
2018-05-11T05:42:38.515Z,41.80
2018-05-11T05:45:07.474Z,36.60
2018-05-11T05:47:36.446Z,36.70
2018-05-11T05:50:05.398Z,37.40
2018-05-11T05:52:34.341Z,34.37
2018-05-11T05:55:03.348Z,32.70
2018-05-11T05:57:32.311Z,37.53
2018-05-11T06:00:01.333Z,31.80
2018-05-11T06:02:30.298Z,36.87
2018-05-11T06:04:59.251Z,33.70
2018-05-11T06:07:28.242Z,39.17
2018-05-11T06:09:57.198Z,37.50
2018-05-11T06:12:26.184Z,35.50
2018-05-11T06:14:55.131Z,37.83
2018-05-11T06:17:24.167Z,33.10
2018-05-11T06:19:53.149Z,33.43
2018-05-11T06:22:22.145Z,34.13
2018-05-11T06:24:51.124Z,36.13
2018-05-11T06:27:20.096Z,31.43
2018-05-11T06:29:49.059Z,37.03
2018-05-11T06:32:18.067Z,33.90
2018-05-11T06:34:47.011Z,37.37
2018-05-11T06:37:15.961Z,40.00
2018-05-11T06:39:44.915Z,31.00
2018-05-11T06:42:13.879Z,33.33
2018-05-11T06:44:42.862Z,32.57
2018-05-11T06:47:11.806Z,27.83
2018-05-11T06:49:40.763Z,29.73
2018-05-11T06:52:09.718Z,32.80
2018-05-11T06:54:38.665Z,29.87
2018-05-11T06:57:07.630Z,31.83
2018-05-11T06:59:36.584Z,32.03
2018-05-11T07:02:05.521Z,29.70
2018-05-11T07:04:34.461Z,31.23
2018-05-11T07:07:03.471Z,35.73
2018-05-11T07:09:32.430Z,32.17
2018-05-11T07:12:01.388Z,33.83
2018-05-11T07:14:30.344Z,31.93
2018-05-11T07:16:59.287Z,35.53
2018-05-11T07:19:28.340Z,33.87
2018-05-11T07:21:57.249Z,33.87
2018-05-11T07:24:26.190Z,33.93
2018-05-11T07:26:55.158Z,35.17
2018-05-11T07:29:24.115Z,38.23
2018-05-11T07:31:53.125Z,36.97
2018-05-11T07:34:22.078Z,38.10
2018-05-11T07:36:51.039Z,41.83
2018-05-11T07:39:19.996Z,42.00
2018-05-11T07:41:48.951Z,43.10
2018-05-11T07:44:17.942Z,41.80
2018-05-11T07:46:46.894Z,40.07
2018-05-11T07:49:15.847Z,40.27
2018-05-11T07:51:44.805Z,40.77
2018-05-11T07:54:13.753Z,39.67
2018-05-11T07:56:42.741Z,38.67
2018-05-11T07:59:11.697Z,37.70
2018-05-11T08:01:40.683Z,39.37
2018-05-11T08:04:09.636Z,40.13
2018-05-11T08:06:38.589Z,41.00
2018-05-11T08:09:07.569Z,40.03
2018-05-11T08:11:36.518Z,39.70
2018-05-11T08:14:05.546Z,43.03
2018-05-11T08:16:34.466Z,40.67
2018-05-11T08:19:03.418Z,39.53
2018-05-11T08:21:32.427Z,37.27
2018-05-11T08:24:01.394Z,40.63
2018-05-11T08:26:30.432Z,40.43
2018-05-11T08:28:59.377Z,37.43
2018-05-11T08:31:28.335Z,37.90
2018-05-11T08:33:57.384Z,33.73
2018-05-11T08:36:26.348Z,35.20
2018-05-11T08:38:55.296Z,32.93
2018-05-11T08:41:24.253Z,35.73
2018-05-11T08:43:53.198Z,37.50
2018-05-11T08:46:22.248Z,34.27
2018-05-11T08:48:51.187Z,35.27
2018-05-11T08:51:20.145Z,35.40
2018-05-11T08:53:49.101Z,35.17
2018-05-11T08:56:18.045Z,37.27
2018-05-11T08:58:47.960Z,35.30
2018-05-11T09:01:16.924Z,34.30
2018-05-11T09:03:45.882Z,34.70
2018-05-11T09:06:14.854Z,33.90
2018-05-11T09:08:43.834Z,34.60
2018-05-11T09:11:12.833Z,35.23
2018-05-11T09:13:41.790Z,38.53
2018-05-11T09:16:10.740Z,38.33
2018-05-11T09:18:39.691Z,38.23
2018-05-11T09:21:08.642Z,35.87
2018-05-11T09:23:37.638Z,35.83
2018-05-11T09:26:06.589Z,36.10
2018-05-11T09:28:35.543Z,34.13
2018-05-11T09:31:04.503Z,33.07
2018-05-11T09:33:33.455Z,33.13
2018-05-11T09:36:02.394Z,34.20
2018-05-11T09:38:31.345Z,35.03
2018-05-11T09:41:00.310Z,34.07
2018-05-11T09:43:29.254Z,35.23
2018-05-11T09:45:58.805Z,35.70
2018-05-11T09:48:27.744Z,34.27
2018-05-11T09:50:56.716Z,35.97
2018-05-11T09:53:25.770Z,35.57
2018-05-11T09:55:55.034Z,37.03
2018-05-11T09:58:24.038Z,38.50
2018-05-11T10:00:53.083Z,36.87
2018-05-11T10:03:21.971Z,34.07
2018-05-11T10:05:50.913Z,32.67
2018-05-11T10:08:19.872Z,34.37
2018-05-11T10:10:48.866Z,32.57
2018-05-11T10:13:18.437Z,30.37
2018-05-11T10:15:47.692Z,30.27
2018-05-11T10:18:16.630Z,31.30
2018-05-11T10:20:45.654Z,32.10
2018-05-11T10:23:14.607Z,32.17
2018-05-11T10:25:43.541Z,30.60
2018-05-11T10:28:12.476Z,28.23
2018-05-11T10:30:41.410Z,30.30
2018-05-11T10:33:10.381Z,32.10
2018-05-11T10:35:39.373Z,30.60
2018-05-11T10:38:08.315Z,30.93
2018-05-11T10:40:37.277Z,29.57
2018-05-11T10:43:06.212Z,30.87
2018-05-11T10:45:35.172Z,31.97
2018-05-11T10:48:04.175Z,28.63
2018-05-11T10:50:33.128Z,33.87
2018-05-11T10:53:02.807Z,31.37
2018-05-11T10:55:31.880Z,30.83
2018-05-11T10:58:00.896Z,32.43
2018-05-11T11:00:29.888Z,30.83
2018-05-11T11:02:58.877Z,36.43
2018-05-11T11:05:27.837Z,31.07
2018-05-11T11:07:57.022Z,31.87
2018-05-11T11:10:26.090Z,30.80
2018-05-11T11:12:55.082Z,30.20
2018-05-11T11:15:24.102Z,34.73
2018-05-11T11:17:53.038Z,26.80
2018-05-11T11:20:22.059Z,28.33
2018-05-11T11:22:51.095Z,26.60
2018-05-11T11:25:20.081Z,25.40
2018-05-11T11:27:49.087Z,24.50
2018-05-11T11:30:18.050Z,23.73
2018-05-11T11:32:47.007Z,24.40
2018-05-11T11:35:15.958Z,27.20
2018-05-11T11:37:45.049Z,23.60
2018-05-11T11:40:14.019Z,25.33
2018-05-11T11:42:42.967Z,26.17
2018-05-11T11:45:11.909Z,26.33
2018-05-11T11:47:40.849Z,27.40
2018-05-11T11:50:09.894Z,29.40
2018-05-11T11:52:38.940Z,26.50
2018-05-11T11:55:07.909Z,25.43
2018-05-11T11:57:37.521Z,24.83
2018-05-11T12:00:06.502Z,25.73
2018-05-11T12:02:35.889Z,27.33
2018-05-11T12:05:04.841Z,24.73
2018-05-11T12:07:33.838Z,22.77
2018-05-11T12:10:02.788Z,24.20
2018-05-11T12:12:31.757Z,23.67
2018-05-11T12:15:00.718Z,24.30
2018-05-11T12:17:30.381Z,24.53
2018-05-11T12:19:59.383Z,23.03
2018-05-11T12:22:28.969Z,24.73
2018-05-11T12:24:57.937Z,24.17
2018-05-11T12:27:26.895Z,27.40
2018-05-11T12:29:55.945Z,26.57
2018-05-11T12:32:24.972Z,26.43
2018-05-11T12:34:53.934Z,26.33
2018-05-11T12:37:22.905Z,26.50
2018-05-11T12:39:51.863Z,26.87
2018-05-11T12:42:20.815Z,25.27
2018-05-11T12:44:49.816Z,27.23
2018-05-11T12:47:19.600Z,24.20
2018-05-11T12:49:48.551Z,24.93
2018-05-11T12:52:18.005Z,23.97
2018-05-11T12:54:46.966Z,28.93
2018-05-11T12:57:15.955Z,29.37
2018-05-11T12:59:44.897Z,26.67
2018-05-11T13:02:13.841Z,25.23
2018-05-11T13:04:42.783Z,26.07
2018-05-11T13:07:11.819Z,25.03
2018-05-11T13:09:40.766Z,24.93
2018-05-11T13:12:10.028Z,23.93
2018-05-11T13:14:38.980Z,29.20
2018-05-11T13:17:08.013Z,26.50
2018-05-11T13:19:36.973Z,26.20
2018-05-11T13:22:05.960Z,27.43
2018-05-11T13:24:34.907Z,27.77
2018-05-11T13:27:03.894Z,26.37
2018-05-11T13:29:32.870Z,31.30
2018-05-11T13:32:01.838Z,27.10
2018-05-11T13:34:31.605Z,27.20
2018-05-11T13:37:00.570Z,32.30
2018-05-11T13:39:29.537Z,31.37
2018-05-11T13:41:58.499Z,33.10
2018-05-11T13:44:27.709Z,35.33
2018-05-11T13:46:56.704Z,33.67
2018-05-11T13:49:25.658Z,34.93
2018-05-11T13:51:54.608Z,34.90
2018-05-11T13:54:23.587Z,33.93
2018-05-11T13:56:52.695Z,35.17
2018-05-11T13:59:21.651Z,32.77
2018-05-11T14:01:50.928Z,30.17
2018-05-11T14:04:20.496Z,33.17
2018-05-11T14:06:49.437Z,28.03
2018-05-11T14:09:18.501Z,27.60
2018-05-11T14:11:49.324Z,27.73
2018-05-11T14:14:18.368Z,26.80
2018-05-11T14:16:47.439Z,28.40
2018-05-11T14:19:16.424Z,25.40
2018-05-11T14:21:46.003Z,28.97
2018-05-11T14:24:14.958Z,26.50
2018-05-11T14:26:43.936Z,28.03
2018-05-11T14:29:12.891Z,25.87
2018-05-11T14:31:42.431Z,26.90
2018-05-11T14:34:11.453Z,30.50
2018-05-11T14:36:40.403Z,33.43
2018-05-11T14:39:09.452Z,33.97
2018-05-11T14:41:38.351Z,31.53
2018-05-11T14:44:07.333Z,36.57
2018-05-11T14:46:36.276Z,34.27
2018-05-11T14:49:05.643Z,35.20
2018-05-11T14:51:34.581Z,31.70
2018-05-11T14:54:03.524Z,34.10
2018-05-11T14:56:32.594Z,33.30
2018-05-11T14:59:01.554Z,32.10
2018-05-11T15:01:30.534Z,32.83
2018-05-11T15:03:59.521Z,34.90
2018-05-11T15:06:28.495Z,31.90
2018-05-11T15:08:57.508Z,32.47
2018-05-11T15:11:26.481Z,33.97
2018-05-11T15:13:55.893Z,33.00
2018-05-11T15:16:24.902Z,36.40
2018-05-11T15:18:54.594Z,35.43
2018-05-11T15:21:23.602Z,32.63
2018-05-11T15:23:52.541Z,32.30
2018-05-11T15:26:21.512Z,36.27
2018-05-11T15:28:50.517Z,32.00
2018-05-11T15:31:19.470Z,36.33
2018-05-11T15:33:48.511Z,34.80
2018-05-11T15:36:17.458Z,35.33
2018-05-11T15:38:46.532Z,35.40
2018-05-11T15:41:15.522Z,34.37
2018-05-11T15:43:44.473Z,31.33
2018-05-11T15:46:13.577Z,28.60
2018-05-11T15:48:42.557Z,30.40
2018-05-11T15:51:11.497Z,32.63
2018-05-11T15:53:40.474Z,29.87
2018-05-11T15:56:09.485Z,30.37
2018-05-11T15:58:38.465Z,28.90
2018-05-11T16:01:07.727Z,28.30
2018-05-11T16:03:36.771Z,27.73
2018-05-11T16:06:05.764Z,31.23
2018-05-11T16:08:35.021Z,32.37
2018-05-11T16:11:03.991Z,33.10
2018-05-11T16:13:32.953Z,32.17
2018-05-11T16:16:01.903Z,31.17
2018-05-11T16:18:30.841Z,33.53
2018-05-11T16:20:59.832Z,30.40
2018-05-11T16:23:28.842Z,35.40
2018-05-11T16:25:58.361Z,31.57
2018-05-11T16:28:28.023Z,34.93
2018-05-11T16:30:56.982Z,32.43
2018-05-11T16:33:25.982Z,31.73
2018-05-11T16:35:55.561Z,29.43
2018-05-11T16:38:24.675Z,31.20
2018-05-11T16:40:54.458Z,33.03
2018-05-11T16:43:24.123Z,34.20
2018-05-11T16:45:53.090Z,29.50
2018-05-11T16:48:22.053Z,29.27
2018-05-11T16:50:51.057Z,30.33
2018-05-11T16:53:20.001Z,27.27
2018-05-11T16:55:49.000Z,32.13
2018-05-11T16:58:17.963Z,28.20
2018-05-11T17:00:46.987Z,29.10
2018-05-11T17:03:15.982Z,28.00
2018-05-11T17:05:44.930Z,27.10
2018-05-11T17:08:13.960Z,27.50
2018-05-11T17:10:42.891Z,27.27
2018-05-11T17:13:11.847Z,26.10
2018-05-11T17:15:40.907Z,25.27
2018-05-11T17:18:09.971Z,23.07
2018-05-11T17:20:38.922Z,46.07
2018-05-11T17:23:07.879Z,51.43
2018-05-11T17:25:36.848Z,65.87
2018-05-11T17:28:05.825Z,76.50
2018-05-11T17:30:35.177Z,38.77
2018-05-11T17:33:04.201Z,32.13
2018-05-11T17:35:33.192Z,28.03
2018-05-11T17:38:02.133Z,30.40
2018-05-11T17:40:31.142Z,30.90
2018-05-11T17:43:00.099Z,32.53
2018-05-11T17:45:29.043Z,31.43
2018-05-11T17:47:58.003Z,28.00
2018-05-11T17:50:26.951Z,31.40
2018-05-11T17:52:55.946Z,28.53
2018-05-11T17:55:24.885Z,31.70
2018-05-11T17:57:53.866Z,28.80
2018-05-11T18:00:22.828Z,30.03
2018-05-11T18:02:51.784Z,30.20
2018-05-11T18:05:20.777Z,32.23
2018-05-11T18:07:50.042Z,34.50
2018-05-11T18:10:19.087Z,30.13
2018-05-11T18:12:47.963Z,32.90
2018-05-11T18:15:17.012Z,32.07
2018-05-11T18:17:46.227Z,32.93
2018-05-11T18:20:15.223Z,32.70
2018-05-11T18:22:44.166Z,31.47
2018-05-11T18:25:13.167Z,35.07
2018-05-11T18:27:42.113Z,34.57
2018-05-11T18:30:11.117Z,33.90
2018-05-11T18:32:40.099Z,34.93
2018-05-11T18:35:09.056Z,36.50
2018-05-11T18:37:38.118Z,34.93
2018-05-11T18:40:07.088Z,33.63
2018-05-11T18:42:36.100Z,33.77
2018-05-11T18:45:05.055Z,37.43
2018-05-11T18:47:34.035Z,34.90
2018-05-11T18:50:02.990Z,35.87
2018-05-11T18:52:31.947Z,36.97
2018-05-11T18:55:00.937Z,36.73
2018-05-11T18:57:29.906Z,38.63
2018-05-11T18:59:58.860Z,36.60
2018-05-11T19:02:27.810Z,37.93
2018-05-11T19:04:56.771Z,41.00
2018-05-11T19:07:25.727Z,42.87
2018-05-11T19:09:54.687Z,39.27
2018-05-11T19:12:23.689Z,40.63
2018-05-11T19:14:52.647Z,43.77
2018-05-11T19:17:21.597Z,40.20
2018-05-11T19:19:50.594Z,44.80
2018-05-11T19:22:20.228Z,43.60
2018-05-11T19:24:49.222Z,46.63
2018-05-11T19:27:18.206Z,46.33
2018-05-11T19:29:47.152Z,45.73
2018-05-11T19:32:16.158Z,49.20
2018-05-11T19:34:45.120Z,52.00
2018-05-11T19:37:14.103Z,45.60
2018-05-11T19:39:43.144Z,49.33
2018-05-11T19:42:12.166Z,48.67
2018-05-11T19:44:41.088Z,51.63
2018-05-11T19:47:10.035Z,59.23
2018-05-11T19:49:41.178Z,54.60
2018-05-11T19:52:10.186Z,62.43
2018-05-11T19:54:39.152Z,61.20
2018-05-11T19:57:08.138Z,61.77
2018-05-11T19:59:37.110Z,61.60
2018-05-11T20:02:06.116Z,57.40
2018-05-11T20:04:35.144Z,53.10
2018-05-11T20:07:04.070Z,60.10
2018-05-11T20:09:33.037Z,58.40
2018-05-11T20:12:02.267Z,61.10
2018-05-11T20:14:31.271Z,57.90
2018-05-11T20:17:00.254Z,64.93
2018-05-11T20:19:29.211Z,65.20
2018-05-11T20:21:58.175Z,63.33
2018-05-11T20:24:27.845Z,62.67
2018-05-11T20:26:56.860Z,65.70
2018-05-11T20:29:25.861Z,59.50
2018-05-11T20:31:54.873Z,63.10
2018-05-11T20:34:24.009Z,59.13
2018-05-11T20:36:53.004Z,64.23
2018-05-11T20:39:22.048Z,67.53
2018-05-11T20:41:51.026Z,66.83
2018-05-11T20:44:20.005Z,70.50
2018-05-11T20:46:49.995Z,65.37
2018-05-11T20:49:18.987Z,67.77
2018-05-11T20:51:48.585Z,59.70
2018-05-11T20:54:17.547Z,69.10
2018-05-11T20:56:46.518Z,60.77
2018-05-11T20:59:15.500Z,67.67
2018-05-11T21:01:44.485Z,73.40
2018-05-11T21:04:13.499Z,68.03
2018-05-11T21:06:43.246Z,60.53
2018-05-11T21:09:12.209Z,59.67
2018-05-11T21:11:41.177Z,64.23
2018-05-11T21:14:10.214Z,61.53
2018-05-11T21:16:39.232Z,63.23
2018-05-11T21:19:08.205Z,60.13
2018-05-11T21:21:37.201Z,56.90
2018-05-11T21:24:06.182Z,57.93
2018-05-11T21:26:35.469Z,55.90
2018-05-11T21:29:04.491Z,63.80
2018-05-11T21:31:33.469Z,69.23
2018-05-11T21:34:02.423Z,67.07
2018-05-11T21:36:31.483Z,68.03
2018-05-11T21:39:00.500Z,67.03
2018-05-11T21:41:29.543Z,67.03
2018-05-11T21:43:58.534Z,69.70
2018-05-11T21:46:27.517Z,83.50
2018-05-11T21:48:56.501Z,71.50
2018-05-11T21:51:25.466Z,80.80
2018-05-11T21:53:54.474Z,67.60
2018-05-11T21:56:23.500Z,73.53
2018-05-11T21:58:52.495Z,69.63
2018-05-11T22:01:21.454Z,65.60
2018-05-11T22:03:50.425Z,63.50
2018-05-11T22:06:19.436Z,59.63
2018-05-11T22:08:48.418Z,69.10
2018-05-11T22:11:17.397Z,63.70
2018-05-11T22:13:46.361Z,68.73
2018-05-11T22:16:15.343Z,72.03
2018-05-11T22:18:44.364Z,55.97
2018-05-11T22:21:13.337Z,58.33
2018-05-11T22:23:42.321Z,65.37
2018-05-11T22:26:11.291Z,68.47
2018-05-11T22:28:40.253Z,63.83
2018-05-11T22:31:09.267Z,61.17
2018-05-11T22:33:38.275Z,67.47
2018-05-11T22:36:07.259Z,69.17
2018-05-11T22:38:36.237Z,71.93
2018-05-11T22:41:05.216Z,73.57
2018-05-11T22:43:34.221Z,78.73
2018-05-11T22:46:03.187Z,77.20
2018-05-11T22:48:32.151Z,79.13
2018-05-11T22:51:01.129Z,71.73
2018-05-11T22:53:30.100Z,77.17
2018-05-11T22:55:59.125Z,88.97
2018-05-11T22:58:28.969Z,80.90
2018-05-11T23:00:57.954Z,83.33
2018-05-11T23:03:26.943Z,84.53
2018-05-11T23:05:55.902Z,93.23
2018-05-11T23:08:24.919Z,79.97
2018-05-11T23:10:53.880Z,79.87
2018-05-11T23:13:22.868Z,78.67
2018-05-11T23:15:51.846Z,66.80
2018-05-11T23:18:20.832Z,60.33
2018-05-11T23:20:49.879Z,64.77
2018-05-11T23:23:18.875Z,58.93
2018-05-11T23:25:47.890Z,65.67
2018-05-11T23:28:16.951Z,54.00
2018-05-11T23:30:45.927Z,60.17
2018-05-11T23:33:14.943Z,59.40
2018-05-11T23:35:43.914Z,57.43
2018-05-11T23:38:12.905Z,48.23
2018-05-11T23:40:41.877Z,50.23
2018-05-11T23:43:10.849Z,52.37
2018-05-11T23:45:39.859Z,46.63
2018-05-11T23:48:08.836Z,45.33
2018-05-11T23:50:37.802Z,49.20
2018-05-11T23:53:06.759Z,44.77
2018-05-11T23:55:35.733Z,46.50
2018-05-11T23:58:04.762Z,53.07
